Time;durP1;ratioP1;P1;durP2;ratioP2;P2;SDS_P1;SDS_P2;PMS_P1;PMS_P2;Temp;Humidity;BMP_temperature;BMP_pressure;BME280_temperature;BME280_humidity;BME280_pressure;Samples;Min_cycle;Max_cycle;Signal;HPM_P1;HPM_P2
2023/04/07 00:04:38;;;;;;;4.00;2.97;;;;;;;;;;10412707;28;20493;-52
2023/04/07 00:09:38;;;;;;;5.53;3.15;;;;;;;;;;10411239;28;20017;-52
2023/04/07 00:14:39;;;;;;;5.75;3.40;;;;;;;;;;10410881;28;20105;-51
2023/04/07 00:19:39;;;;;;;7.28;3.20;;;;;;;;;;10413339;28;20028;-52
2023/04/07 00:24:40;;;;;;;4.93;3.10;;;;;;;;;;10422022;28;20400;-51
2023/04/07 00:29:42;;;;;;;4.82;2.90;;;;;;;;;;10411702;28;20044;-51
2023/04/07 00:34:43;;;;;;;6.53;3.53;;;;;;;;;;10411830;28;20075;-51
2023/04/07 00:39:44;;;;;;;6.47;3.65;;;;;;;;;;10410235;28;20524;-52
2023/04/07 00:44:44;;;;;;;5.80;3.67;;;;;;;;;;10411227;28;20036;-52
2023/04/07 00:49:45;;;;;;;5.13;3.50;;;;;;;;;;10410055;28;20040;-51
2023/04/07 00:54:46;;;;;;;6.45;3.42;;;;;;;;;;10410453;28;20119;-53
2023/04/07 00:59:47;;;;;;;5.53;3.20;;;;;;;;;;10408735;28;20397;-53
2023/04/07 01:05:20;;;;;;;4.43;3.22;;;;;;;;;;10409490;28;20017;-52
2023/04/07 01:10:34;;;;;;;5.28;3.50;;;;;;;;;;10408048;28;20037;-54
2023/04/07 01:15:38;;;;;;;4.97;3.75;;;;;;;;;;10414349;28;20040;-51
2023/04/07 01:20:39;;;;;;;6.25;3.22;;;;;;;;;;10407842;28;20034;-55
2023/04/07 01:26:34;;;;;;;4.47;3.38;;;;;;;;;;10409469;28;20029;-51
2023/04/07 01:31:38;;;;;;;6.15;3.70;;;;;;;;;;10384527;28;20493;-51
2023/04/07 01:36:40;;;;;;;7.47;3.58;;;;;;;;;;10408335;28;20026;-51
2023/04/07 01:41:43;;;;;;;5.22;3.60;;;;;;;;;;10407954;28;20523;-51
2023/04/07 01:46:43;;;;;;;8.80;3.50;;;;;;;;;;10409041;28;20666;-53
2023/04/07 01:51:49;;;;;;;4.03;3.13;;;;;;;;;;10404506;28;20040;-51
2023/04/07 01:56:49;;;;;;;4.63;3.30;;;;;;;;;;10406437;28;20033;-51
2023/04/07 02:01:50;;;;;;;5.32;3.55;;;;;;;;;;10407817;28;20052;-51
2023/04/07 02:07:00;;;;;;;4.93;3.25;;;;;;;;;;10407929;28;20108;-53
2023/04/07 02:12:06;;;;;;;6.82;3.13;;;;;;;;;;10407990;28;20042;-52
2023/04/07 02:17:08;;;;;;;5.80;3.63;;;;;;;;;;10407495;28;20040;-52
2023/04/07 02:22:10;;;;;;;5.65;3.25;;;;;;;;;;10408202;28;20418;-52
2023/04/07 02:27:10;;;;;;;4.88;3.58;;;;;;;;;;10406400;28;20034;-52
2023/04/07 02:32:11;;;;;;;4.32;3.55;;;;;;;;;;10408276;28;20469;-52
2023/04/07 02:37:11;;;;;;;5.38;4.03;;;;;;;;;;10407511;28;20057;-53
2023/04/07 02:42:12;;;;;;;5.65;3.72;;;;;;;;;;10408271;28;20022;-56
2023/04/07 02:47:13;;;;;;;4.47;3.88;;;;;;;;;;10409201;28;20033;-52
2023/04/07 02:52:13;;;;;;;5.00;4.03;;;;;;;;;;10415449;28;20050;-50
2023/04/07 02:57:14;;;;;;;5.30;3.60;;;;;;;;;;10414789;28;20470;-52
2023/04/07 03:02:15;;;;;;;4.75;3.60;;;;;;;;;;10414183;28;20084;-51
2023/04/07 03:07:15;;;;;;;6.53;3.47;;;;;;;;;;10416089;28;20033;-52
2023/04/07 03:12:16;;;;;;;7.25;3.88;;;;;;;;;;10413263;28;20025;-52
2023/04/07 03:17:16;;;;;;;4.00;3.15;;;;;;;;;;10415253;28;20021;-53
2023/04/07 03:22:17;;;;;;;5.30;3.67;;;;;;;;;;10414131;28;20017;-50
2023/04/07 03:27:19;;;;;;;5.40;3.75;;;;;;;;;;10417920;28;20037;-51
2023/04/07 03:32:19;;;;;;;4.60;3.53;;;;;;;;;;10413011;28;20036;-51
2023/04/07 03:37:20;;;;;;;6.30;3.65;;;;;;;;;;10412781;28;20032;-52
2023/04/07 03:42:20;;;;;;;4.50;3.50;;;;;;;;;;10412785;28;20032;-51
2023/04/07 03:47:21;;;;;;;4.82;2.97;;;;;;;;;;10412923;28;20029;-53
2023/04/07 03:52:22;;;;;;;4.10;3.47;;;;;;;;;;10413863;28;20033;-51
2023/04/07 03:57:22;;;;;;;5.20;3.85;;;;;;;;;;10412125;28;20025;-50
2023/04/07 04:02:23;;;;;;;4.97;3.63;;;;;;;;;;10410474;28;20025;-52
2023/04/07 04:07:25;;;;;;;5.70;3.35;;;;;;;;;;10412387;28;20026;-52
2023/04/07 04:12:25;;;;;;;6.28;3.83;;;;;;;;;;10411666;28;20021;-52
2023/04/07 04:17:26;;;;;;;4.32;3.42;;;;;;;;;;10411953;28;20025;-51
2023/04/07 04:22:27;;;;;;;4.72;3.67;;;;;;;;;;10412796;28;20056;-53
2023/04/07 04:27:27;;;;;;;7.22;3.70;;;;;;;;;;10416328;28;20413;-52
2023/04/07 04:32:28;;;;;;;4.97;3.55;;;;;;;;;;10411956;28;20378;-51
2023/04/07 04:37:28;;;;;;;5.05;3.60;;;;;;;;;;10411359;28;20029;-52
2023/04/07 04:42:30;;;;;;;5.57;4.03;;;;;;;;;;10411406;28;20097;-50
2023/04/07 04:47:30;;;;;;;6.78;4.20;;;;;;;;;;10412064;28;20053;-51
2023/04/07 04:52:31;;;;;;;4.32;3.53;;;;;;;;;;10410559;28;20044;-51
2023/04/07 04:57:34;;;;;;;4.85;3.42;;;;;;;;;;10409558;28;20025;-52
2023/04/07 05:02:36;;;;;;;4.45;3.63;;;;;;;;;;10410989;28;20049;-50
2023/04/07 05:07:37;;;;;;;4.32;3.30;;;;;;;;;;10410484;28;20032;-53
2023/04/07 05:12:38;;;;;;;4.28;3.38;;;;;;;;;;10409198;28;20029;-52
2023/04/07 05:17:38;;;;;;;4.70;3.63;;;;;;;;;;10409830;28;20469;-52
2023/04/07 05:22:39;;;;;;;5.57;3.88;;;;;;;;;;10409589;28;20527;-52
2023/04/07 05:27:39;;;;;;;5.13;3.17;;;;;;;;;;10413535;28;20026;-52
2023/04/07 05:32:40;;;;;;;5.07;3.25;;;;;;;;;;10408984;28;20025;-51
2023/04/07 05:37:41;;;;;;;6.72;2.90;;;;;;;;;;10408862;28;20127;-51
2023/04/07 05:42:41;;;;;;;4.40;3.15;;;;;;;;;;10408815;28;20034;-52
2023/04/07 05:47:42;;;;;;;3.83;3.10;;;;;;;;;;10408400;28;20045;-51
2023/04/07 05:52:42;;;;;;;5.97;3.17;;;;;;;;;;10407858;28;20042;-51
2023/04/07 05:57:43;;;;;;;5.72;3.22;;;;;;;;;;10408247;28;20427;-49
2023/04/07 06:02:44;;;;;;;4.47;2.90;;;;;;;;;;10407468;28;20036;-52
2023/04/07 06:07:45;;;;;;;9.00;3.97;;;;;;;;;;10408158;28;20042;-49
2023/04/07 06:12:45;;;;;;;11.38;4.30;;;;;;;;;;10408875;28;20022;-54
2023/04/07 06:17:47;;;;;;;15.18;4.40;;;;;;;;;;10408381;28;20060;-50
2023/04/07 06:22:47;;;;;;;6.35;4.10;;;;;;;;;;10413264;28;20468;-55
2023/04/07 06:27:48;;;;;;;12.02;3.92;;;;;;;;;;10420569;28;20080;-50
2023/04/07 06:32:49;;;;;;;15.85;4.10;;;;;;;;;;10415741;28;20040;-51
2023/04/07 06:37:50;;;;;;;6.93;3.80;;;;;;;;;;10416636;28;20022;-51
2023/04/07 06:42:50;;;;;;;7.10;3.97;;;;;;;;;;10415370;28;20029;-52
2023/04/07 06:47:51;;;;;;;7.72;4.13;;;;;;;;;;10415158;28;20492;-51
2023/04/07 06:52:52;;;;;;;10.65;3.53;;;;;;;;;;10414334;28;20108;-50
2023/04/07 06:57:52;;;;;;;8.73;3.80;;;;;;;;;;10413663;28;20268;-56
2023/04/07 07:02:53;;;;;;;6.05;3.25;;;;;;;;;;10414858;28;20362;-51
2023/04/07 07:07:53;;;;;;;7.03;3.58;;;;;;;;;;10415270;28;20018;-50
2023/04/07 07:12:54;;;;;;;8.20;4.30;;;;;;;;;;10415187;28;20021;-51
2023/04/07 07:17:55;;;;;;;8.82;3.78;;;;;;;;;;10414871;28;20461;-51
2023/04/07 07:22:55;;;;;;;9.20;3.22;;;;;;;;;;10413856;28;20083;-52
2023/04/07 07:27:56;;;;;;;6.38;3.50;;;;;;;;;;10419180;28;20381;-51
2023/04/07 07:32:56;;;;;;;5.85;3.80;;;;;;;;;;10413150;28;20026;-51
2023/04/07 07:37:57;;;;;;;8.18;3.45;;;;;;;;;;10414546;28;20083;-54
2023/04/07 07:42:59;;;;;;;8.43;3.55;;;;;;;;;;10413356;28;20026;-49
2023/04/07 07:48:00;;;;;;;9.15;3.88;;;;;;;;;;10413085;28;20025;-57
2023/04/07 07:53:01;;;;;;;4.60;3.05;;;;;;;;;;10413885;28;20045;-53
2023/04/07 07:58:01;;;;;;;7.28;3.47;;;;;;;;;;10411577;28;20022;-52
2023/04/07 08:03:02;;;;;;;8.02;3.35;;;;;;;;;;10412404;28;20021;-49
2023/04/07 08:08:03;;;;;;;8.82;3.58;;;;;;;;;;10413359;28;20033;-52
2023/04/07 08:13:04;;;;;;;3.97;2.85;;;;;;;;;;10412074;28;20500;-53
2023/04/07 08:18:05;;;;;;;4.75;3.15;;;;;;;;;;10412595;28;20350;-51
2023/04/07 08:23:06;;;;;;;9.07;3.78;;;;;;;;;;10412490;28;20029;-52
2023/04/07 08:28:07;;;;;;;4.25;3.10;;;;;;;;;;10416651;28;20465;-51
2023/04/07 08:33:07;;;;;;;9.98;3.30;;;;;;;;;;10411136;28;20111;-50
2023/04/07 08:38:08;;;;;;;5.22;3.00;;;;;;;;;;10411048;28;20168;-52
2023/04/07 08:43:09;;;;;;;5.85;3.25;;;;;;;;;;10410605;28;20033;-52
2023/04/07 08:48:21;;;;;;;5.60;3.45;;;;;;;;;;10410325;28;20052;-51
2023/04/07 08:53:31;;;;;;;7.25;3.33;;;;;;;;;;10398357;28;20054;-51
2023/04/07 08:58:31;;;;;;;3.78;3.25;;;;;;;;;;10406996;28;20519;-50
2023/04/07 09:03:33;;;;;;;4.22;2.85;;;;;;;;;;10411432;28;20017;-47
2023/04/07 09:08:33;;;;;;;7.45;2.83;;;;;;;;;;10409137;28;20437;-51
2023/04/07 09:13:34;;;;;;;3.63;3.00;;;;;;;;;;10409950;28;20032;-50
2023/04/07 09:18:35;;;;;;;4.85;2.78;;;;;;;;;;10408197;28;20040;-53
2023/04/07 09:23:40;;;;;;;5.10;3.05;;;;;;;;;;10408801;28;20025;-47
2023/04/07 09:28:46;;;;;;;4.55;3.28;;;;;;;;;;10412907;28;20040;-51
2023/04/07 09:33:48;;;;;;;4.72;3.00;;;;;;;;;;10410088;28;20095;-48
2023/04/07 09:38:49;;;;;;;4.13;2.90;;;;;;;;;;10409784;28;20117;-47
2023/04/07 09:43:56;;;;;;;3.70;2.97;;;;;;;;;;10410361;28;20017;-52
2023/04/07 09:49:06;;;;;;;3.80;2.92;;;;;;;;;;10409564;28;20017;-48
2023/04/07 09:54:07;;;;;;;3.47;2.85;;;;;;;;;;10407230;28;20033;-47
2023/04/07 09:59:08;;;;;;;4.65;3.30;;;;;;;;;;10407102;28;20040;-51
2023/04/07 10:04:10;;;;;;;4.40;2.80;;;;;;;;;;10407915;28;20026;-51
2023/04/07 10:09:11;;;;;;;6.05;3.20;;;;;;;;;;10404594;28;20038;-50
2023/04/07 10:14:11;;;;;;;5.72;2.65;;;;;;;;;;10408558;28;20030;-50
2023/04/07 10:19:13;;;;;;;5.28;3.00;;;;;;;;;;10407653;28;20025;-53
2023/04/07 10:24:42;;;;;;;4.72;3.17;;;;;;;;;;10411849;28;20025;-51
2023/04/07 10:29:45;;;;;;;;;;;;;;;;;;10409956;28;20091;-48
2023/04/07 10:34:49;;;;;;;5.15;3.50;;;;;;;;;;10408737;28;19917;-52
2023/04/07 10:40:18;;;;;;;4.43;3.03;;;;;;;;;;10407147;28;20091;-52
2023/04/07 10:45:44;;;;;;;4.57;3.58;;;;;;;;;;10407462;28;20109;-51
2023/04/07 10:51:06;;;;;;;5.13;3.17;;;;;;;;;;10407466;28;20029;-52
2023/04/07 10:56:06;;;;;;;6.32;3.67;;;;;;;;;;10406513;28;20036;-52
2023/04/07 11:01:07;;;;;;;3.92;3.17;;;;;;;;;;10405499;28;20056;-52
2023/04/07 11:06:11;;;;;;;4.07;2.90;;;;;;;;;;10408491;28;20044;-49
2023/04/07 11:11:14;;;;;;;5.22;3.55;;;;;;;;;;10413272;28;20389;-52
2023/04/07 11:16:18;;;;;;;7.60;3.45;;;;;;;;;;10414768;28;20033;-52
2023/04/07 11:21:18;;;;;;;3.95;3.03;;;;;;;;;;10413896;28;20036;-49
2023/04/07 11:26:20;;;;;;;4.00;3.33;;;;;;;;;;10417805;28;20059;-51
2023/04/07 11:31:31;;;;;;;5.43;3.58;;;;;;;;;;10411938;28;20574;-52
2023/04/07 11:36:34;;;;;;;4.88;3.45;;;;;;;;;;10414658;28;20560;-54
2023/04/07 11:41:46;;;;;;;5.13;3.55;;;;;;;;;;10411785;28;20687;-52
2023/04/07 11:46:59;;;;;;;4.45;3.28;;;;;;;;;;10413205;28;20480;-52
2023/04/07 11:52:07;;;;;;;5.57;3.92;;;;;;;;;;10412451;28;20102;-53
2023/04/07 11:57:11;;;;;;;;;;;;;;;;;;10413028;28;20033;-50
2023/04/07 12:02:33;;;;;;;4.00;3.35;;;;;;;;;;10398843;28;19917;-51
2023/04/07 12:07:33;;;;;;;6.50;3.88;;;;;;;;;;10397337;28;20049;-51
2023/04/07 12:12:34;;;;;;;5.68;4.05;;;;;;;;;;10410397;28;20041;-51
2023/04/07 12:17:35;;;;;;;6.43;4.15;;;;;;;;;;10410792;28;20030;-54
2023/04/07 12:22:35;;;;;;;4.25;3.75;;;;;;;;;;10410118;28;20056;-51
2023/04/07 12:27:36;;;;;;;5.97;3.85;;;;;;;;;;10414690;28;20044;-51
2023/04/07 12:32:37;;;;;;;8.68;3.80;;;;;;;;;;10402463;28;20034;-56
2023/04/07 12:37:37;;;;;;;7.05;3.97;;;;;;;;;;10400056;28;20393;-51
2023/04/07 12:42:38;;;;;;;5.90;3.88;;;;;;;;;;10375732;28;20072;-51
2023/04/07 12:47:39;;;;;;;5.88;4.03;;;;;;;;;;10379730;28;20133;-50
2023/04/07 12:52:40;;;;;;;5.97;3.90;;;;;;;;;;10396077;28;20068;-53
2023/04/07 12:57:40;;;;;;;5.78;3.78;;;;;;;;;;10406965;28;20390;-51
2023/04/07 13:02:42;;;;;;;5.68;4.07;;;;;;;;;;10408130;28;20030;-52
2023/04/07 13:07:42;;;;;;;5.13;3.72;;;;;;;;;;10405554;28;20207;-49
2023/04/07 13:12:43;;;;;;;9.73;4.38;;;;;;;;;;10402579;28;20446;-51
2023/04/07 13:17:45;;;;;;;4.43;3.92;;;;;;;;;;10391224;28;20029;-49
2023/04/07 13:22:46;;;;;;;15.05;4.30;;;;;;;;;;10404392;28;20026;-50
2023/04/07 13:27:46;;;;;;;11.10;4.03;;;;;;;;;;10413212;28;20396;-52
2023/04/07 13:32:49;;;;;;;8.88;3.72;;;;;;;;;;10402232;28;20393;-49
2023/04/07 13:37:50;;;;;;;4.63;3.70;;;;;;;;;;10408162;28;20029;-50
2023/04/07 13:42:51;;;;;;;7.93;3.97;;;;;;;;;;10407547;28;20377;-53
2023/04/07 13:47:51;;;;;;;13.40;4.13;;;;;;;;;;10406111;28;20043;-52
2023/04/07 13:52:52;;;;;;;6.88;3.90;;;;;;;;;;10407133;28;20045;-49
2023/04/07 13:57:53;;;;;;;8.23;4.30;;;;;;;;;;10397370;28;20033;-53
2023/04/07 14:02:54;;;;;;;10.07;3.50;;;;;;;;;;10405080;28;20083;-52
2023/04/07 14:07:55;;;;;;;6.13;3.30;;;;;;;;;;10396665;28;20029;-52
2023/04/07 14:12:55;;;;;;;7.82;4.72;;;;;;;;;;10402255;28;20397;-49
2023/04/07 14:17:56;;;;;;;12.27;4.28;;;;;;;;;;10407168;28;20350;-51
2023/04/07 14:22:57;;;;;;;18.05;4.90;;;;;;;;;;10401989;28;20393;-48
2023/04/07 14:27:57;;;;;;;11.35;4.53;;;;;;;;;;10406368;28;20025;-52
2023/04/07 14:32:58;;;;;;;15.55;5.10;;;;;;;;;;10398663;28;20028;-51
2023/04/07 14:37:59;;;;;;;9.68;4.40;;;;;;;;;;10395077;28;20040;-51
2023/04/07 14:43:00;;;;;;;14.30;5.22;;;;;;;;;;10398394;28;20056;-51
2023/04/07 14:48:01;;;;;;;15.70;4.82;;;;;;;;;;10414505;28;20060;-49
2023/04/07 14:53:02;;;;;;;15.02;5.13;;;;;;;;;;10429681;23;20092;-60
2023/04/07 14:58:02;;;;;;;21.77;5.32;;;;;;;;;;10412803;28;20022;-59
2023/04/07 15:03:03;;;;;;;13.40;5.40;;;;;;;;;;10414101;28;20028;-59
2023/04/07 15:08:04;;;;;;;17.52;5.57;;;;;;;;;;10413867;28;20028;-60
2023/04/07 15:13:05;;;;;;;17.55;5.32;;;;;;;;;;10412975;28;20041;-60
2023/04/07 15:18:05;;;;;;;17.65;5.88;;;;;;;;;;10414189;28;20561;-59
2023/04/07 15:23:07;;;;;;;11.57;5.57;;;;;;;;;;10415471;28;20041;-60
2023/04/07 15:28:07;;;;;;;11.77;5.93;;;;;;;;;;10422407;28;20029;-59
2023/04/07 15:33:08;;;;;;;12.00;5.20;;;;;;;;;;10413262;28;20041;-59
2023/04/07 15:38:09;;;;;;;12.77;5.20;;;;;;;;;;10414084;28;20091;-59
2023/04/07 15:43:10;;;;;;;22.83;5.43;;;;;;;;;;10413817;28;20026;-61
2023/04/07 15:48:12;;;;;;;22.42;8.30;;;;;;;;;;10414195;28;20033;-60
2023/04/07 15:53:13;;;;;;;19.45;8.65;;;;;;;;;;10399427;28;20534;-60
2023/04/07 15:58:13;;;;;;;21.80;8.80;;;;;;;;;;10411738;28;20025;-60
2023/04/07 16:03:14;;;;;;;19.65;8.40;;;;;;;;;;10388375;28;20092;-60
2023/04/07 16:08:14;;;;;;;22.17;8.70;;;;;;;;;;10410601;28;20385;-60
2023/04/07 16:13:15;;;;;;;20.90;7.45;;;;;;;;;;10411107;28;20029;-61
2023/04/07 16:18:16;;;;;;;18.52;7.05;;;;;;;;;;10410145;28;20120;-61
2023/04/07 16:23:16;;;;;;;16.40;6.10;;;;;;;;;;10411129;28;20083;-60
2023/04/07 16:28:17;;;;;;;10.73;6.05;;;;;;;;;;10416022;28;20039;-61
2023/04/07 16:33:17;;;;;;;14.18;5.50;;;;;;;;;;10410963;28;20080;-60
2023/04/07 16:38:18;;;;;;;18.42;5.78;;;;;;;;;;10411717;28;20033;-60
2023/04/07 16:43:19;;;;;;;15.35;5.68;;;;;;;;;;10411845;28;20052;-60
2023/04/07 16:48:19;;;;;;;17.92;5.43;;;;;;;;;;10410580;28;20033;-60
2023/04/07 16:53:20;;;;;;;7.63;4.90;;;;;;;;;;10408717;28;20034;-61
2023/04/07 16:58:21;;;;;;;8.85;4.68;;;;;;;;;;10406671;28;20079;-63
2023/04/07 17:03:21;;;;;;;11.20;5.40;;;;;;;;;;10388614;28;20032;-60
2023/04/07 17:08:24;;;;;;;10.05;4.65;;;;;;;;;;10407577;28;20366;-61
2023/04/07 17:13:25;;;;;;;12.48;5.05;;;;;;;;;;10408515;28;20037;-61
2023/04/07 17:18:26;;;;;;;11.98;5.03;;;;;;;;;;10408560;28;20025;-60
2023/04/07 17:23:27;;;;;;;8.73;5.22;;;;;;;;;;10408764;28;20041;-60
2023/04/07 17:28:29;;;;;;;10.35;4.85;;;;;;;;;;10413708;28;20124;-60
2023/04/07 17:33:30;;;;;;;6.60;4.03;;;;;;;;;;10410154;28;20176;-60
2023/04/07 17:38:30;;;;;;;6.70;3.40;;;;;;;;;;10410175;28;20184;-60
2023/04/07 17:43:31;;;;;;;7.20;4.15;;;;;;;;;;10407502;28;20260;-60
2023/04/07 17:48:32;;;;;;;8.98;4.15;;;;;;;;;;10408580;28;20116;-60
2023/04/07 17:53:32;;;;;;;11.30;4.80;;;;;;;;;;10409166;28;20052;-60
2023/04/07 17:58:33;;;;;;;5.80;3.55;;;;;;;;;;10407132;28;20021;-60
2023/04/07 18:03:33;;;;;;;7.43;3.80;;;;;;;;;;10408460;28;20091;-61
2023/04/07 18:08:34;;;;;;;5.63;3.08;;;;;;;;;;10408598;28;20091;-60
2023/04/07 18:13:35;;;;;;;4.18;3.40;;;;;;;;;;10407961;28;20056;-63
2023/04/07 18:18:38;;;;;;;6.47;3.67;;;;;;;;;;10412869;28;20029;-60
2023/04/07 18:23:39;;;;;;;8.07;3.53;;;;;;;;;;10416624;28;20030;-60
2023/04/07 18:28:39;;;;;;;9.30;4.18;;;;;;;;;;10421269;28;20033;-60
2023/04/07 18:33:40;;;;;;;9.65;3.63;;;;;;;;;;10392458;28;20358;-61
2023/04/07 18:38:40;;;;;;;6.45;3.50;;;;;;;;;;10382605;28;20049;-60
2023/04/07 18:43:41;;;;;;;5.07;3.38;;;;;;;;;;10381421;28;20025;-60
2023/04/07 18:48:43;;;;;;;5.43;3.45;;;;;;;;;;10396087;28;20029;-60
2023/04/07 18:53:43;;;;;;;6.53;3.30;;;;;;;;;;10413791;28;20073;-60
2023/04/07 18:58:44;;;;;;;4.45;2.95;;;;;;;;;;10412884;28;20029;-59
2023/04/07 19:03:45;;;;;;;6.00;3.90;;;;;;;;;;10414129;28;20029;-60
2023/04/07 19:08:45;;;;;;;5.40;3.33;;;;;;;;;;10413764;28;20033;-60
2023/04/07 19:13:47;;;;;;;8.43;3.53;;;;;;;;;;10413089;28;20048;-60
2023/04/07 19:18:48;;;;;;;4.90;3.42;;;;;;;;;;10413295;28;20033;-59
2023/04/07 19:23:49;;;;;;;5.80;3.35;;;;;;;;;;10413464;28;20400;-60
2023/04/07 19:28:50;;;;;;;4.82;3.38;;;;;;;;;;10416571;28;20030;-60
2023/04/07 19:33:50;;;;;;;5.32;3.42;;;;;;;;;;10413937;28;20511;-60
2023/04/07 19:38:51;;;;;;;3.55;3.15;;;;;;;;;;10410919;28;20355;-60
2023/04/07 19:43:52;;;;;;;6.07;3.10;;;;;;;;;;10412513;28;20366;-61
2023/04/07 19:48:52;;;;;;;4.75;3.92;;;;;;;;;;10414177;28;20102;-60
2023/04/07 19:53:53;;;;;;;8.32;3.85;;;;;;;;;;10388364;28;20041;-60
2023/04/07 19:58:53;;;;;;;5.25;3.63;;;;;;;;;;10383319;28;20474;-60
2023/04/07 20:03:54;;;;;;;7.43;4.00;;;;;;;;;;10381878;28;20033;-60
2023/04/07 20:08:55;;;;;;;6.32;3.47;;;;;;;;;;10377913;28;20462;-60
2023/04/07 20:13:55;;;;;;;6.25;4.20;;;;;;;;;;10401237;28;20454;-59
2023/04/07 20:18:56;;;;;;;4.78;3.67;;;;;;;;;;10410831;28;20025;-60
2023/04/07 20:23:57;;;;;;;8.82;3.83;;;;;;;;;;10410842;28;20263;-59
2023/04/07 20:28:57;;;;;;;5.95;3.75;;;;;;;;;;10413634;28;20037;-62
2023/04/07 20:33:58;;;;;;;7.18;4.18;;;;;;;;;;10411494;28;20021;-58
2023/04/07 20:38:59;;;;;;;9.75;4.35;;;;;;;;;;10412026;28;20168;-58
2023/04/07 20:43:59;;;;;;;4.88;3.78;;;;;;;;;;10410660;28;20080;-57
2023/04/07 20:49:00;;;;;;;5.60;3.50;;;;;;;;;;10412053;28;20032;-58
2023/04/07 20:54:01;;;;;;;6.55;4.18;;;;;;;;;;10412189;28;20049;-58
2023/04/07 20:59:02;;;;;;;6.05;3.83;;;;;;;;;;10409744;28;20030;-58
2023/04/07 21:04:02;;;;;;;7.30;3.72;;;;;;;;;;10409831;28;20391;-57
2023/04/07 21:09:04;;;;;;;7.55;4.50;;;;;;;;;;10410977;28;20047;-60
2023/04/07 21:14:05;;;;;;;9.95;4.10;;;;;;;;;;10409565;28;20029;-60
2023/04/07 21:19:06;;;;;;;5.63;4.07;;;;;;;;;;10409450;28;20411;-61
2023/04/07 21:24:06;;;;;;;6.22;3.95;;;;;;;;;;10409252;28;20392;-60
2023/04/07 21:29:07;;;;;;;6.85;3.83;;;;;;;;;;10410238;28;20048;-60
2023/04/07 21:34:08;;;;;;;10.02;5.07;;;;;;;;;;10409357;28;20049;-58
2023/04/07 21:39:08;;;;;;;29.13;5.70;;;;;;;;;;10408794;28;20025;-57
2023/04/07 21:44:09;;;;;;;17.92;5.57;;;;;;;;;;10409189;28;20029;-57
2023/04/07 21:49:10;;;;;;;8.80;4.95;;;;;;;;;;10409490;28;20072;-57
2023/04/07 21:54:11;;;;;;;9.57;4.63;;;;;;;;;;10408065;28;20053;-57
2023/04/07 21:59:11;;;;;;;12.70;4.22;;;;;;;;;;10406820;28;20025;-57
2023/04/07 22:04:12;;;;;;;10.57;4.57;;;;;;;;;;10408022;28;20034;-57
2023/04/07 22:09:13;;;;;;;8.57;4.82;;;;;;;;;;10408220;28;20029;-57
2023/04/07 22:14:13;;;;;;;9.32;4.75;;;;;;;;;;10407585;28;20033;-57
2023/04/07 22:19:14;;;;;;;9.73;4.65;;;;;;;;;;10408653;28;20026;-60
2023/04/07 22:24:15;;;;;;;7.78;3.88;;;;;;;;;;10412686;28;20033;-60
2023/04/07 22:29:15;;;;;;;15.95;4.05;;;;;;;;;;10408234;28;20104;-67
2023/04/07 22:34:17;;;;;;;9.40;4.07;;;;;;;;;;10408140;28;20025;-60
2023/04/07 22:39:17;;;;;;;7.60;4.63;;;;;;;;;;10406925;28;20041;-60
2023/04/07 22:44:18;;;;;;;13.35;5.03;;;;;;;;;;10407584;28;20030;-60
2023/04/07 22:49:18;;;;;;;9.30;4.50;;;;;;;;;;10406282;28;20047;-60
2023/04/07 22:54:19;;;;;;;9.13;4.35;;;;;;;;;;10406821;28;20049;-60
2023/04/07 22:59:20;;;;;;;14.73;4.70;;;;;;;;;;10406526;28;20061;-60
2023/04/07 23:04:21;;;;;;;8.98;4.60;;;;;;;;;;10409474;28;20034;-59
2023/04/07 23:09:21;;;;;;;8.77;4.70;;;;;;;;;;10414325;28;20033;-60
2023/04/07 23:14:22;;;;;;;9.05;5.10;;;;;;;;;;10415326;28;20021;-57
2023/04/07 23:19:23;;;;;;;11.15;4.88;;;;;;;;;;10414442;28;20026;-57
2023/04/07 23:24:23;;;;;;;10.70;5.78;;;;;;;;;;10418439;28;20032;-58
2023/04/07 23:29:24;;;;;;;10.45;5.57;;;;;;;;;;10415142;28;20044;-57
2023/04/07 23:34:24;;;;;;;11.07;5.50;;;;;;;;;;10414292;28;20025;-57
2023/04/07 23:39:25;;;;;;;10.40;5.72;;;;;;;;;;10414210;28;20036;-57
2023/04/07 23:44:25;;;;;;;8.93;5.30;;;;;;;;;;10414844;28;20021;-57
2023/04/07 23:49:28;;;;;;;9.35;5.60;;;;;;;;;;10413219;28;20026;-57
2023/04/07 23:54:28;;;;;;;12.27;6.30;;;;;;;;;;10413070;28;20502;-57
2023/04/07 23:59:29;;;;;;;8.88;5.47;;;;;;;;;;10411204;28;20025;-57
